createdAt,value
2019-05-16T00:01:54.844Z,55.41
2019-05-16T00:04:25.303Z,55.64
2019-05-16T00:06:55.719Z,55.83
2019-05-16T00:09:28.579Z,56.06
2019-05-16T00:11:58.428Z,56.68
2019-05-16T00:14:28.789Z,56.58
2019-05-16T00:16:59.352Z,56.85
2019-05-16T00:19:29.961Z,56.66
2019-05-16T00:22:00.544Z,56.98
2019-05-16T00:24:30.918Z,57.02
2019-05-16T00:27:01.704Z,56.84
2019-05-16T00:29:32.152Z,56.94
2019-05-16T00:32:02.742Z,56.87
2019-05-16T00:34:33.154Z,57.10
2019-05-16T00:37:04.023Z,57.04
2019-05-16T00:39:34.426Z,57.17
2019-05-16T00:42:04.698Z,57.26
2019-05-16T00:44:35.229Z,57.21
2019-05-16T00:47:05.575Z,57.03
2019-05-16T00:49:35.837Z,56.53
2019-05-16T00:52:07.755Z,56.58
2019-05-16T00:54:38.493Z,56.57
2019-05-16T00:57:11.284Z,56.60
2019-05-16T00:59:42.107Z,56.56
2019-05-16T01:02:15.021Z,56.68
2019-05-16T01:04:45.620Z,57.05
2019-05-16T01:07:18.688Z,57.11
2019-05-16T01:09:50.022Z,57.38
2019-05-16T01:12:20.503Z,57.43
2019-05-16T01:14:52.189Z,57.57
2019-05-16T01:17:22.516Z,57.61
2019-05-16T01:19:52.829Z,57.42
2019-05-16T01:22:23.140Z,57.79
2019-05-16T01:24:58.311Z,58.48
2019-05-16T01:27:30.602Z,58.48
2019-05-16T01:30:01.445Z,58.71
2019-05-16T01:32:33.285Z,58.24
2019-05-16T01:35:04.008Z,58.05
2019-05-16T01:37:34.541Z,57.87
2019-05-16T01:40:05.488Z,57.96
2019-05-16T01:42:35.797Z,58.17
2019-05-16T01:45:08.245Z,58.22
2019-05-16T01:47:39.771Z,58.24
2019-05-16T01:50:10.579Z,58.16
2019-05-16T01:52:40.916Z,58.23
2019-05-16T01:55:11.374Z,58.51
2019-05-16T01:57:41.757Z,58.80
2019-05-16T02:00:12.262Z,58.48
2019-05-16T02:02:42.839Z,58.39
2019-05-16T02:05:14.584Z,58.39
2019-05-16T02:07:44.861Z,58.24
2019-05-16T02:10:18.189Z,58.05
2019-05-16T02:12:49.120Z,58.23
2019-05-16T02:15:20.869Z,58.20
2019-05-16T02:17:51.136Z,57.87
2019-05-16T02:20:22.157Z,57.60
2019-05-16T02:22:52.413Z,57.48
2019-05-16T02:25:23.865Z,57.20
2019-05-16T02:27:54.194Z,57.24
2019-05-16T02:30:25.567Z,56.82
2019-05-16T02:32:55.841Z,56.82
2019-05-16T02:35:26.253Z,56.95
2019-05-16T02:37:56.806Z,56.81
2019-05-16T02:40:31.451Z,56.47
2019-05-16T02:43:02.345Z,56.19
2019-05-16T02:45:32.816Z,56.04
2019-05-16T02:48:04.794Z,56.18
2019-05-16T02:50:35.352Z,56.08
2019-05-16T02:53:05.989Z,55.60
2019-05-16T02:55:36.302Z,55.23
2019-05-16T02:58:06.854Z,54.71
2019-05-16T03:00:42.531Z,54.26
2019-05-16T03:03:13.182Z,54.02
2019-05-16T03:05:44.254Z,53.69
2019-05-16T03:08:20.682Z,53.50
2019-05-16T03:10:52.040Z,53.38
2019-05-16T03:13:23.649Z,53.27
2019-05-16T03:15:55.558Z,53.27
2019-05-16T03:18:30.979Z,53.05
2019-05-16T03:21:04.627Z,52.87
2019-05-16T03:23:34.885Z,52.83
2019-05-16T03:26:06.850Z,52.81
2019-05-16T03:28:37.180Z,52.76
2019-05-16T03:31:14.126Z,52.72
2019-05-16T03:33:48.958Z,52.76
2019-05-16T03:36:14.749Z,52.67
2019-05-16T03:38:44.247Z,52.77
2019-05-16T03:41:14.542Z,52.73
2019-05-16T03:43:45.146Z,52.52
2019-05-16T03:46:15.458Z,52.52
2019-05-16T03:48:46.641Z,52.23
2019-05-16T03:51:21.501Z,52.03
2019-05-16T03:53:51.046Z,51.82
2019-05-16T03:56:22.157Z,51.66
2019-05-16T03:58:55.963Z,51.62
2019-05-16T04:01:26.336Z,51.62
2019-05-16T04:03:56.704Z,51.71
2019-05-16T04:06:31.144Z,51.51
2019-05-16T04:09:03.090Z,51.44
2019-05-16T04:11:33.443Z,51.50
2019-05-16T04:14:04.863Z,51.38
2019-05-16T04:16:35.374Z,51.06
2019-05-16T04:19:06.372Z,50.19
2019-05-16T04:21:36.689Z,50.19
2019-05-16T04:24:12.063Z,50.09
2019-05-16T04:26:41.288Z,49.79
2019-05-16T04:29:15.527Z,49.14
2019-05-16T04:31:46.219Z,49.26
2019-05-16T04:34:20.445Z,49.26
2019-05-16T04:36:51.418Z,49.71
2019-05-16T04:39:26.017Z,49.63
2019-05-16T04:41:56.444Z,49.67
2019-05-16T04:44:26.772Z,49.66
2019-05-16T04:46:57.331Z,49.58
2019-05-16T04:49:31.871Z,49.44
2019-05-16T04:52:01.531Z,49.34
2019-05-16T04:54:31.911Z,49.29
2019-05-16T04:57:02.241Z,49.36
2019-05-16T04:59:32.616Z,49.24
2019-05-16T05:02:05.726Z,48.79
2019-05-16T05:04:36.000Z,48.25
2019-05-16T05:07:06.641Z,47.11
2019-05-16T05:09:36.978Z,47.11
2019-05-16T05:12:07.612Z,46.31
2019-05-16T05:14:37.935Z,45.91
2019-05-16T05:17:10.745Z,45.44
2019-05-16T05:19:43.389Z,44.96
2019-05-16T05:22:13.983Z,44.72
2019-05-16T05:24:44.270Z,44.71
2019-05-16T05:27:16.563Z,44.13
2019-05-16T05:29:46.911Z,43.93
2019-05-16T05:32:19.843Z,43.59
2019-05-16T05:34:50.344Z,42.91
2019-05-16T05:37:20.786Z,42.28
2019-05-16T05:39:51.106Z,41.65
2019-05-16T05:42:21.707Z,41.32
2019-05-16T05:44:52.152Z,41.30
2019-05-16T05:47:24.350Z,40.89
2019-05-16T05:49:54.652Z,40.89
2019-05-16T05:52:27.005Z,40.78
2019-05-16T05:55:00.445Z,40.80
2019-05-16T05:57:31.743Z,40.63
2019-05-16T06:00:02.037Z,40.63
2019-05-16T06:02:35.296Z,40.87
2019-05-16T06:05:06.943Z,40.80
2019-05-16T06:07:37.229Z,40.77
2019-05-16T06:10:10.781Z,40.29
2019-05-16T06:12:42.578Z,40.48
2019-05-16T06:15:13.629Z,40.41
2019-05-16T06:17:45.852Z,40.65
2019-05-16T06:20:20.353Z,40.68
2019-05-16T06:22:51.094Z,40.82
2019-05-16T06:25:22.615Z,41.35
2019-05-16T06:27:54.045Z,41.38
2019-05-16T06:30:24.593Z,41.62
2019-05-16T06:32:55.170Z,42.07
2019-05-16T06:35:25.780Z,42.07
2019-05-16T06:38:00.612Z,42.60
2019-05-16T06:40:31.725Z,42.80
2019-05-16T06:43:02.048Z,42.88
2019-05-16T06:45:36.051Z,43.26
2019-05-16T06:48:10.061Z,43.32
2019-05-16T06:50:40.705Z,43.26
2019-05-16T06:53:11.128Z,43.89
2019-05-16T06:55:41.615Z,43.90
2019-05-16T06:58:11.966Z,43.94
2019-05-16T07:00:42.532Z,43.94
2019-05-16T07:03:12.827Z,44.17
2019-05-16T07:05:44.821Z,44.29
2019-05-16T07:08:15.100Z,44.38
2019-05-16T07:10:45.721Z,44.38
2019-05-16T07:13:16.010Z,44.58
2019-05-16T07:15:50.051Z,44.58
2019-05-16T07:18:22.053Z,44.30
2019-05-16T07:20:54.699Z,44.40
2019-05-16T07:23:25.286Z,44.53
2019-05-16T07:25:55.955Z,44.75
2019-05-16T07:28:30.372Z,44.64
2019-05-16T07:31:14.893Z,44.61
2019-05-16T07:33:35.635Z,44.64
2019-05-16T07:36:06.146Z,44.51
2019-05-16T07:38:36.426Z,44.35
2019-05-16T07:41:13.670Z,44.24
2019-05-16T07:43:40.163Z,43.99
2019-05-16T07:46:16.759Z,44.06
2019-05-16T07:48:51.775Z,44.21
2019-05-16T07:51:26.027Z,44.33
2019-05-16T07:53:56.390Z,44.39
2019-05-16T07:56:26.736Z,43.98
2019-05-16T07:58:57.139Z,43.85
2019-05-16T08:01:30.697Z,43.45
2019-05-16T08:04:01.414Z,43.86
2019-05-16T08:06:34.119Z,44.10
2019-05-16T08:09:07.887Z,44.09
2019-05-16T08:11:40.815Z,44.25
2019-05-16T08:14:10.475Z,44.16
2019-05-16T08:16:41.076Z,44.60
2019-05-16T08:19:13.883Z,45.10
2019-05-16T08:21:44.801Z,45.12
2019-05-16T08:24:20.319Z,44.81
2019-05-16T08:26:51.473Z,44.82
2019-05-16T08:29:22.184Z,44.90
2019-05-16T08:31:53.158Z,44.67
2019-05-16T08:34:23.846Z,44.66
2019-05-16T08:36:54.795Z,44.49
2019-05-16T08:39:30.124Z,44.37
2019-05-16T08:42:08.060Z,44.23
2019-05-16T08:44:36.252Z,44.49
2019-05-16T08:47:11.562Z,44.53
2019-05-16T08:49:42.215Z,44.34
2019-05-16T08:52:13.273Z,43.67
2019-05-16T08:54:50.883Z,43.16
2019-05-16T08:57:27.581Z,42.63
2019-05-16T08:59:52.604Z,41.98
2019-05-16T09:02:32.281Z,41.22
2019-05-16T09:04:55.098Z,40.35
2019-05-16T09:07:31.714Z,40.09
2019-05-16T09:10:00.909Z,40.08
2019-05-16T09:12:34.218Z,39.41
2019-05-16T09:15:07.970Z,39.15
2019-05-16T09:17:38.694Z,38.63
2019-05-16T09:20:12.829Z,37.49
2019-05-16T09:22:42.988Z,36.85
2019-05-16T09:25:13.811Z,36.52
2019-05-16T09:27:46.895Z,37.12
2019-05-16T09:30:17.464Z,36.97
2019-05-16T09:32:54.633Z,36.26
2019-05-16T09:35:27.942Z,36.14
2019-05-16T09:37:58.983Z,36.45
2019-05-16T09:40:29.856Z,36.97
2019-05-16T09:43:03.222Z,37.65
2019-05-16T09:45:34.967Z,36.97
2019-05-16T09:48:09.886Z,36.91
2019-05-16T09:50:43.348Z,37.27
2019-05-16T09:53:13.922Z,37.33
2019-05-16T09:55:46.895Z,36.67
2019-05-16T09:58:18.692Z,35.16
2019-05-16T10:00:49.391Z,34.06
2019-05-16T10:03:22.826Z,34.40
2019-05-16T10:05:57.215Z,35.24
2019-05-16T10:08:28.085Z,35.29
2019-05-16T10:10:58.478Z,35.21
2019-05-16T10:13:29.123Z,34.99
2019-05-16T10:16:02.270Z,35.61
2019-05-16T10:18:32.873Z,34.93
2019-05-16T10:21:04.353Z,34.10
2019-05-16T10:23:36.443Z,34.67
2019-05-16T10:26:06.916Z,34.36
2019-05-16T10:28:38.533Z,34.38
2019-05-16T10:31:09.792Z,35.46
2019-05-16T10:33:40.123Z,35.02
2019-05-16T10:36:11.312Z,33.87
2019-05-16T10:38:48.145Z,33.12
2019-05-16T10:41:20.034Z,32.21
2019-05-16T10:43:51.566Z,29.89
2019-05-16T10:46:22.183Z,27.23
2019-05-16T10:48:54.041Z,23.06
2019-05-16T10:51:26.755Z,21.54
2019-05-16T10:54:08.845Z,22.13
2019-05-16T10:56:29.465Z,21.65
2019-05-16T10:59:37.746Z,20.31
2019-05-16T11:01:36.575Z,22.33
2019-05-16T11:04:07.510Z,24.03
2019-05-16T11:06:38.224Z,24.62
2019-05-16T11:09:08.987Z,24.62
2019-05-16T11:11:39.752Z,26.18
2019-05-16T11:14:10.298Z,26.02
2019-05-16T11:16:40.907Z,25.52
2019-05-16T11:19:18.275Z,25.10
2019-05-16T11:21:46.830Z,23.64
2019-05-16T11:24:19.308Z,23.29
2019-05-16T11:26:53.162Z,23.53
2019-05-16T11:29:23.810Z,25.01
2019-05-16T11:31:54.441Z,26.82
2019-05-16T11:34:27.853Z,29.18
2019-05-16T11:36:58.409Z,29.83
2019-05-16T11:39:29.002Z,28.21
2019-05-16T11:41:59.336Z,30.49
2019-05-16T11:44:29.959Z,29.40
2019-05-16T11:47:00.563Z,29.67
2019-05-16T11:49:31.165Z,31.24
2019-05-16T11:52:01.774Z,32.16
2019-05-16T11:54:32.390Z,34.55
2019-05-16T11:57:02.672Z,35.70
2019-05-16T11:59:33.008Z,36.61
2019-05-16T12:02:03.357Z,38.10
2019-05-16T12:04:33.863Z,38.48
2019-05-16T12:07:07.456Z,38.96
2019-05-16T12:09:47.185Z,39.54
2019-05-16T12:12:11.223Z,39.37
2019-05-16T12:14:42.722Z,38.35
2019-05-16T12:17:16.599Z,37.35
2019-05-16T12:19:49.023Z,37.59
2019-05-16T12:22:20.155Z,37.68
2019-05-16T12:24:50.421Z,37.74
2019-05-16T12:27:31.751Z,37.30
2019-05-16T12:29:58.756Z,37.39
2019-05-16T12:32:28.414Z,37.40
2019-05-16T12:35:01.913Z,37.03
2019-05-16T12:37:33.143Z,37.96
2019-05-16T12:40:03.499Z,38.92
2019-05-16T12:42:36.516Z,39.03
2019-05-16T12:45:08.210Z,37.91
2019-05-16T12:47:40.640Z,37.37
2019-05-16T12:50:12.347Z,36.13
2019-05-16T12:52:47.401Z,36.14
2019-05-16T12:55:17.444Z,36.55
2019-05-16T12:57:48.935Z,35.89
2019-05-16T13:00:20.543Z,35.38
2019-05-16T13:02:52.148Z,34.26
2019-05-16T13:05:22.801Z,34.07
2019-05-16T13:07:54.758Z,33.85
2019-05-16T13:10:27.032Z,34.77
2019-05-16T13:13:00.120Z,35.84
2019-05-16T13:15:31.160Z,36.13
2019-05-16T13:18:03.002Z,36.07
2019-05-16T13:20:33.606Z,37.31
2019-05-16T13:23:13.854Z,38.38
2019-05-16T13:25:37.650Z,38.67
2019-05-16T13:28:10.128Z,39.46
2019-05-16T13:30:42.109Z,39.46
2019-05-16T13:33:13.537Z,39.86
2019-05-16T13:35:43.910Z,39.75
2019-05-16T13:38:16.990Z,40.67
2019-05-16T13:40:46.357Z,44.17
2019-05-16T13:43:17.503Z,45.12
2019-05-16T13:45:48.034Z,46.10
2019-05-16T13:48:18.312Z,46.10
2019-05-16T13:50:48.934Z,45.96
2019-05-16T13:53:20.511Z,47.34
2019-05-16T13:55:51.233Z,47.87
2019-05-16T13:58:21.935Z,49.51
2019-05-16T14:00:52.244Z,47.55
2019-05-16T14:03:22.966Z,46.36
2019-05-16T14:05:58.220Z,45.16
2019-05-16T14:08:30.709Z,44.73
2019-05-16T14:11:02.281Z,43.22
2019-05-16T14:13:32.956Z,41.55
2019-05-16T14:16:07.110Z,38.92
2019-05-16T14:18:38.089Z,38.32
2019-05-16T14:21:08.878Z,37.35
2019-05-16T14:23:39.566Z,37.18
2019-05-16T14:26:10.025Z,38.30
2019-05-16T14:28:44.318Z,39.66
2019-05-16T14:31:12.716Z,40.31
2019-05-16T14:33:43.684Z,40.33
2019-05-16T14:36:16.736Z,40.88
2019-05-16T14:38:47.129Z,41.18
2019-05-16T14:41:19.091Z,41.64
2019-05-16T14:43:50.014Z,41.95
2019-05-16T14:46:21.857Z,41.88
2019-05-16T14:48:52.126Z,41.59
2019-05-16T14:51:22.947Z,41.49
2019-05-16T14:53:53.292Z,41.15
2019-05-16T14:56:26.831Z,41.08
2019-05-16T14:58:57.686Z,40.87
2019-05-16T15:01:28.134Z,40.89
2019-05-16T15:03:58.448Z,40.87
2019-05-16T15:06:31.395Z,40.04
2019-05-16T15:09:02.108Z,39.61
2019-05-16T15:11:34.420Z,39.61
2019-05-16T15:14:07.145Z,39.54
2019-05-16T15:16:37.569Z,39.74
2019-05-16T15:19:08.407Z,39.70
2019-05-16T15:21:38.987Z,40.16
2019-05-16T15:24:09.558Z,40.59
2019-05-16T15:26:40.386Z,40.73
2019-05-16T15:29:11.023Z,41.08
2019-05-16T15:31:43.547Z,41.52
2019-05-16T15:34:15.289Z,41.64
2019-05-16T15:36:46.738Z,42.24
2019-05-16T15:39:19.655Z,43.07
2019-05-16T15:41:50.311Z,43.09
2019-05-16T15:44:20.626Z,42.84
2019-05-16T15:46:56.659Z,42.28
2019-05-16T15:49:30.888Z,42.27
2019-05-16T15:52:02.738Z,42.52
2019-05-16T15:54:34.245Z,42.78
2019-05-16T15:57:06.673Z,42.78
2019-05-16T15:59:38.460Z,43.00
2019-05-16T16:02:09.090Z,42.70
2019-05-16T16:04:41.830Z,42.86
2019-05-16T16:07:12.601Z,43.19
2019-05-16T16:09:43.444Z,43.18
2019-05-16T16:12:14.109Z,43.11
2019-05-16T16:14:46.742Z,43.29
2019-05-16T16:17:17.817Z,43.21
2019-05-16T16:19:49.473Z,43.74
2019-05-16T16:22:20.062Z,43.81
2019-05-16T16:24:50.858Z,43.44
2019-05-16T16:27:21.456Z,43.66
2019-05-16T16:29:51.976Z,43.98
2019-05-16T16:32:22.314Z,44.05
2019-05-16T16:34:52.594Z,44.50
2019-05-16T16:37:22.916Z,44.56
2019-05-16T16:39:53.539Z,44.49
2019-05-16T16:42:24.160Z,44.34
2019-05-16T16:44:56.598Z,44.58
2019-05-16T16:47:28.381Z,44.42
2019-05-16T16:49:59.466Z,44.28
2019-05-16T16:52:30.020Z,44.11
2019-05-16T16:55:01.013Z,44.55
2019-05-16T16:57:31.353Z,44.27
2019-05-16T17:00:02.011Z,44.12
2019-05-16T17:02:34.156Z,44.71
2019-05-16T17:05:11.469Z,44.78
2019-05-16T17:07:39.614Z,44.95
2019-05-16T17:10:10.779Z,45.18
2019-05-16T17:12:42.560Z,45.18
2019-05-16T17:15:16.966Z,45.09
2019-05-16T17:17:47.389Z,44.92
2019-05-16T17:20:18.402Z,44.82
2019-05-16T17:22:49.699Z,45.11
2019-05-16T17:25:20.500Z,45.23
2019-05-16T17:27:52.074Z,45.08
2019-05-16T17:30:23.280Z,45.25
2019-05-16T17:32:54.010Z,45.73
2019-05-16T17:35:26.866Z,46.36
2019-05-16T17:37:57.872Z,46.37
2019-05-16T17:40:28.218Z,46.50
2019-05-16T17:42:58.868Z,46.58
2019-05-16T17:45:29.935Z,47.03
2019-05-16T17:48:00.524Z,47.41
2019-05-16T17:50:31.150Z,47.57
2019-05-16T17:53:01.792Z,47.94
2019-05-16T17:55:32.327Z,48.26
2019-05-16T17:58:07.946Z,48.36
2019-05-16T18:00:35.388Z,48.44
2019-05-16T18:03:06.594Z,48.77
2019-05-16T18:05:39.169Z,49.01
2019-05-16T18:08:09.595Z,49.17
2019-05-16T18:10:40.237Z,49.21
2019-05-16T18:13:10.619Z,49.37
2019-05-16T18:15:41.242Z,50.00
2019-05-16T18:18:12.715Z,50.60
2019-05-16T18:20:54.794Z,50.79
2019-05-16T18:23:16.445Z,51.69
2019-05-16T18:25:47.238Z,52.43
2019-05-16T18:28:17.816Z,52.77
2019-05-16T18:30:48.277Z,53.29
2019-05-16T18:33:18.833Z,53.32
2019-05-16T18:35:49.897Z,54.09
2019-05-16T18:38:21.234Z,54.29
2019-05-16T18:40:56.735Z,55.40
2019-05-16T18:43:27.318Z,55.63
2019-05-16T18:45:58.883Z,56.09
2019-05-16T18:48:29.316Z,56.45
2019-05-16T18:51:02.017Z,57.42
2019-05-16T18:53:32.463Z,58.34
2019-05-16T18:56:02.817Z,59.00
2019-05-16T18:58:33.418Z,59.16
2019-05-16T19:01:03.838Z,59.11
2019-05-16T19:03:34.665Z,59.67
2019-05-16T19:06:07.538Z,60.68
2019-05-16T19:08:38.411Z,62.80
2019-05-16T19:11:09.058Z,65.77
2019-05-16T19:13:39.958Z,68.68
2019-05-16T19:16:10.315Z,70.16
2019-05-16T19:18:41.132Z,71.40
2019-05-16T19:21:11.433Z,73.53
2019-05-16T19:23:42.513Z,75.06
2019-05-16T19:26:13.171Z,77.45
2019-05-16T19:28:46.736Z,79.66
2019-05-16T19:31:17.245Z,80.83
2019-05-16T19:33:48.868Z,81.12
2019-05-16T19:36:19.471Z,81.35
2019-05-16T19:38:52.201Z,80.85
2019-05-16T19:41:22.762Z,80.46
2019-05-16T19:43:57.202Z,80.14
2019-05-16T19:46:27.553Z,79.94
2019-05-16T19:48:59.256Z,80.12
2019-05-16T19:51:29.781Z,80.24
2019-05-16T19:54:01.480Z,80.32
2019-05-16T19:56:31.797Z,80.28
2019-05-16T19:59:02.197Z,80.60
2019-05-16T20:01:32.708Z,80.58
2019-05-16T20:04:03.101Z,80.49
2019-05-16T20:06:33.791Z,80.45
2019-05-16T20:09:07.155Z,80.54
2019-05-16T20:11:37.959Z,80.76
2019-05-16T20:14:08.557Z,80.60
2019-05-16T20:16:38.985Z,80.60
2019-05-16T20:19:09.433Z,81.37
2019-05-16T20:21:40.611Z,81.64
2019-05-16T20:24:11.380Z,81.33
2019-05-16T20:26:41.801Z,81.25
2019-05-16T20:29:12.222Z,81.23
2019-05-16T20:31:42.690Z,81.14
2019-05-16T20:34:17.348Z,80.78
2019-05-16T20:36:47.646Z,80.53
2019-05-16T20:39:18.050Z,80.51
2019-05-16T20:41:48.701Z,80.44
2019-05-16T20:44:19.004Z,80.14
2019-05-16T20:46:50.502Z,80.02
2019-05-16T20:49:20.824Z,79.84
2019-05-16T20:51:51.432Z,79.66
2019-05-16T20:54:22.356Z,79.43
2019-05-16T20:56:53.566Z,79.38
2019-05-16T20:59:26.634Z,79.31
2019-05-16T21:01:58.362Z,79.26
2019-05-16T21:04:29.047Z,79.26
2019-05-16T21:07:07.653Z,79.44
2019-05-16T21:09:33.080Z,79.51
2019-05-16T21:12:03.847Z,79.55
2019-05-16T21:14:34.343Z,79.51
2019-05-16T21:17:06.708Z,80.04
2019-05-16T21:19:39.262Z,80.19
2019-05-16T21:22:08.815Z,80.18
2019-05-16T21:24:39.236Z,80.49
2019-05-16T21:27:09.561Z,81.01
2019-05-16T21:29:40.026Z,81.69
2019-05-16T21:32:10.549Z,82.48
2019-05-16T21:34:41.151Z,83.79
2019-05-16T21:37:17.181Z,83.79
2019-05-16T21:39:43.786Z,84.40
2019-05-16T21:42:16.609Z,84.93
2019-05-16T21:44:47.253Z,85.46
2019-05-16T21:47:19.547Z,86.21
2019-05-16T21:49:49.867Z,86.60
2019-05-16T21:52:20.226Z,86.74
2019-05-16T21:54:51.632Z,87.06
2019-05-16T21:57:22.230Z,87.29
2019-05-16T21:59:54.163Z,87.55
2019-05-16T22:02:26.676Z,87.81
2019-05-16T22:04:58.256Z,88.01
2019-05-16T22:07:33.410Z,88.28
2019-05-16T22:10:02.280Z,88.59
2019-05-16T22:12:34.182Z,88.69
2019-05-16T22:15:06.941Z,88.75
2019-05-16T22:17:38.957Z,88.73
2019-05-16T22:20:12.040Z,88.74
2019-05-16T22:22:42.406Z,88.77
2019-05-16T22:25:13.661Z,88.85
2019-05-16T22:27:48.395Z,88.97
2019-05-16T22:30:19.671Z,89.04
2019-05-16T22:32:50.097Z,89.13
2019-05-16T22:35:22.686Z,89.13
2019-05-16T22:37:58.608Z,89.17
2019-05-16T22:40:26.656Z,89.19
2019-05-16T22:42:57.678Z,89.18
2019-05-16T22:45:30.088Z,89.22
2019-05-16T22:48:00.344Z,89.26
2019-05-16T22:50:31.970Z,89.32
2019-05-16T22:53:02.552Z,89.41
2019-05-16T22:55:33.948Z,89.55
2019-05-16T22:58:07.199Z,89.55
2019-05-16T23:00:40.717Z,89.48
2019-05-16T23:03:09.051Z,89.55
2019-05-16T23:05:39.684Z,89.64
2019-05-16T23:08:10.283Z,89.65
2019-05-16T23:10:40.587Z,89.65
2019-05-16T23:13:11.151Z,89.66
2019-05-16T23:15:41.612Z,89.66
2019-05-16T23:18:12.379Z,89.68
2019-05-16T23:20:42.891Z,89.69
2019-05-16T23:23:13.236Z,89.67
2019-05-16T23:25:45.841Z,89.69
2019-05-16T23:28:16.721Z,89.69
2019-05-16T23:30:47.234Z,89.74
2019-05-16T23:33:24.252Z,89.79
2019-05-16T23:35:54.629Z,89.76
2019-05-16T23:38:27.429Z,89.78
2019-05-16T23:40:57.305Z,89.75
2019-05-16T23:43:28.036Z,89.71
2019-05-16T23:45:58.604Z,89.63
2019-05-16T23:48:30.599Z,89.60
2019-05-16T23:51:00.911Z,89.54
2019-05-16T23:53:32.399Z,89.50
2019-05-16T23:56:02.740Z,89.49
2019-05-16T23:58:36.774Z,89.45
